Flight Track Log - Related Links

Times and Time Zones

All times are in EDT time to prevent confusion due to time zone crossing. See the PDT4624 flight status page for this flight to view local times or setup timezone preferences in your user account.

Time Position Orientation Groundspeed Altitude Reporting Facility
EDT Latitude Longitude Course Direction KTS MPH feet Rate Location/Type
Sat 05:21:36 PM 38.8833 -76.9833 72° East 150 173 1,800  Level Potomac TRACON
Sat 05:22:36 PM 38.9000 -76.9333 67° East 162 186 2,800 895 Climbing Potomac TRACON
Sat 05:23:00 PM 38.9167 -76.7719 90° East  Level FlightAware Approximate
Sat 05:23:30 PM 38.9167 -76.8833 67° East 174 200 3,500  Level Potomac TRACON
Sat 05:24:00 PM 38.9363 -76.6813 70° East  Level FlightAware Approximate
Sat 05:24:36 PM 38.9333 -76.8167 72° East 181 208 4,500  Level Potomac TRACON
Sat 05:25:00 PM 38.9605 -76.5913 72° East  Level FlightAware Approximate
Sat 05:25:30 PM 38.9333 -76.7667 90° East 179 206 5,400  Level Potomac TRACON
Sat 05:26:00 PM 38.9832 -76.5007 72° East  Level FlightAware Approximate
Sat 05:26:36 PM 38.9500 -76.7000 72° East 174 200 6,600  Level Potomac TRACON
Sat 05:27:00 PM 39.0059 -76.4100 72° East  Level FlightAware Approximate
Sat 05:27:43 PM 38.9667 -76.6333 72° East 193 222 7,300  Level Potomac TRACON
Sat 05:28:37 PM 38.9833 -76.5667 72° East 173 199 8,600 895 Climbing Potomac TRACON
Sat 05:29:37 PM 39.0000 -76.5167 67° East 171 197 9,000 190 Climbing Potomac TRACON
Sat 05:30:43 PM 39.0500 -76.4667 38° Northeast 208 239 9,000  Level Potomac TRACON
Sat 05:31:43 PM 39.0833 -76.4000 57° Northeast 210 242 9,000  Level Potomac TRACON
Sat 05:32:43 PM 39.1167 -76.3500 49° Northeast 203 234 9,000 -50 Level Potomac TRACON
Sat 05:33:43 PM 39.1500 -76.2833 57° Northeast 213 245 8,900  Descending Potomac TRACON
Sat 05:34:44 PM 39.2000 -76.2333 38° Northeast 211 243 9,000 50 Climbing Potomac TRACON
Sat 05:35:44 PM 39.2333 -76.1833 49° Northeast 216 249 9,000 -592 Level Potomac TRACON
Sat 05:37:16 PM 39.3000 -76.0833 49° Northeast 231 266 7,500 -987 Descending Philadelphia TRACON
Sat 05:38:22 PM 39.3333 -76.0000 63° Northeast 230 265 6,400 -1,000 Descending Philadelphia TRACON
Sat 05:39:22 PM 39.3667 -75.9333 57° Northeast 229 264 5,400 -700 Descending Philadelphia TRACON
Sat 05:40:22 PM 39.4000 -75.8667 57° Northeast 233 268 5,000 -250 Descending Philadelphia TRACON
Sat 05:41:22 PM 39.4167 -75.7833 75° East 244 281 4,900 -50 Descending Philadelphia TRACON
Sat 05:42:22 PM 39.4333 -75.7000 75° East 235 270 4,900 50 Level Philadelphia TRACON
Sat 05:43:22 PM 39.4500 -75.6167 75° East 231 266 5,000 -105 Climbing Philadelphia TRACON
Sat 05:44:16 PM 39.4667 -75.5500 72° East 229 264 4,700 -684 Descending Philadelphia TRACON
Sat 05:45:16 PM 39.5000 -75.4667 63° Northeast 242 278 3,700 -900 Descending Philadelphia TRACON
Sat 05:46:16 PM 39.5167 -75.3833 75° East 239 275 2,900 -381 Descending Philadelphia TRACON
Sat 05:47:22 PM 39.5333 -75.3000 75° East 228 262 2,900 50 Level Philadelphia TRACON
Sat 05:48:17 PM 39.5667 -75.2500 49° Northeast 199 229 3,000 52 Climbing Philadelphia TRACON
Sat 05:49:17 PM 39.6333 -75.2333 11° North 198 228 3,000 -158 Level Philadelphia TRACON
Sat 05:50:11 PM 39.6833 -75.2167 14° North 197 227 2,700 -526 Descending Philadelphia TRACON
Sat 05:51:11 PM 39.7333 -75.2167 360° North 195 224 2,000 -700 Descending Philadelphia TRACON

Login

Don't have an account? Register now (free) for customized features, flight alerts, and more!